Time;durP1;ratioP1;P1;durP2;ratioP2;P2;SDS_P1;SDS_P2;PMS_P1;PMS_P2;Temp;Humidity;BMP_temperature;BMP_pressure;BME280_temperature;BME280_humidity;BME280_pressure;Samples;Min_cycle;Max_cycle;Signal;HPM_P1;HPM_P2
2022/05/30 00:00:45;;;;;;;0.00;0.00;;;10.90;99.90;;;;;;5071909;28;20212;-59
2022/05/30 00:03:12;;;;;;;0.40;0.40;;;10.90;99.90;;;;;;5071779;28;20251;-58
2022/05/30 00:05:46;;;;;;;0.10;0.10;;;10.90;99.90;;;;;;5071855;28;20203;-59
2022/05/30 00:08:13;;;;;;;0.20;0.20;;;10.90;99.90;;;;;;5071337;28;20297;-59
2022/05/30 00:10:40;;;;;;;0.10;0.10;;;10.90;99.90;;;;;;5070869;28;20207;-57
2022/05/30 00:13:08;;;;;;;0.00;0.00;;;10.90;99.90;;;;;;5071763;28;20201;-58
2022/05/30 00:15:36;;;;;;;0.10;0.10;;;10.90;99.90;;;;;;5071582;28;20685;-58
2022/05/30 00:18:03;;;;;;;0.20;0.20;;;10.90;99.90;;;;;;5070773;28;20216;-57
2022/05/30 00:20:31;;;;;;;0.00;0.00;;;10.90;99.90;;;;;;5071755;28;20660;-57
2022/05/30 00:22:58;;;;;;;0.23;0.23;;;10.90;99.90;;;;;;5071926;28;20215;-58
2022/05/30 00:25:25;;;;;;;0.40;0.40;;;10.80;99.90;;;;;;5071857;28;20246;-57
2022/05/30 00:27:52;;;;;;;0.10;0.10;;;10.80;99.90;;;;;;5071673;28;20243;-57
2022/05/30 00:30:20;;;;;;;0.00;0.00;;;10.80;99.90;;;;;;5074985;28;20205;-58
2022/05/30 00:32:47;;;;;;;0.20;0.17;;;10.70;99.90;;;;;;5075488;28;20198;-57
2022/05/30 00:35:15;;;;;;;0.17;0.17;;;10.80;99.90;;;;;;5075160;28;20204;-57
2022/05/30 00:37:41;;;;;;;0.73;0.50;;;10.70;99.90;;;;;;5074837;28;20217;-57
2022/05/30 00:40:10;;;;;;;0.03;0.03;;;10.70;99.90;;;;;;5074675;28;20207;-57
2022/05/30 00:42:36;;;;;;;0.20;0.20;;;10.60;99.90;;;;;;5074578;28;20245;-58
2022/05/30 00:45:04;;;;;;;0.30;0.30;;;10.70;99.90;;;;;;5073958;28;20210;-57
2022/05/30 00:47:32;;;;;;;1.27;0.47;;;10.70;99.90;;;;;;5077471;28;20211;-58
2022/05/30 00:49:59;;;;;;;0.30;0.30;;;10.70;99.90;;;;;;5075383;28;20199;-58
2022/05/30 00:52:32;;;;;;;0.20;0.20;;;10.70;99.90;;;;;;5074897;28;20600;-57
2022/05/30 00:55:04;;;;;;;0.10;0.10;;;10.60;99.90;;;;;;5074755;28;20288;-57
2022/05/30 00:57:33;;;;;;;0.20;0.20;;;10.60;99.90;;;;;;5074117;28;20192;-57
2022/05/30 01:00:05;;;;;;;0.17;0.17;;;10.60;99.90;;;;;;5074614;28;20207;-57
2022/05/30 01:02:35;;;;;;;0.27;0.27;;;10.50;99.90;;;;;;5073984;28;20187;-57
2022/05/30 01:07:48;;;;;;;0.67;0.57;;;10.40;99.90;;;;;;5074192;28;20175;-57
2022/05/30 01:10:18;;;;;;;0.83;0.83;;;10.30;99.90;;;;;;5073679;28;20200;-57
2022/05/30 01:12:49;;;;;;;0.10;0.10;;;10.30;99.90;;;;;;5073623;28;20264;-58
2022/05/30 01:15:18;;;;;;;1.93;1.90;;;10.30;99.90;;;;;;5074130;28;20308;-57
2022/05/30 01:17:53;;;;;;;0.00;0.00;;;10.20;99.90;;;;;;5074606;28;20206;-57
2022/05/30 01:20:33;;;;;;;0.27;0.27;;;10.30;99.90;;;;;;5074759;28;20251;-57
2022/05/30 01:23:15;;;;;;;0.10;0.10;;;10.30;99.90;;;;;;5073529;28;20183;-57
2022/05/30 01:26:04;;;;;;;0.00;0.00;;;10.30;99.90;;;;;;5074349;28;20182;-58
2022/05/30 01:28:49;;;;;;;0.10;0.10;;;10.40;99.90;;;;;;5074629;28;20270;-58
2022/05/30 01:31:17;;;;;;;0.40;0.40;;;10.30;99.90;;;;;;5072659;28;20632;-60
2022/05/30 01:33:45;;;;;;;0.33;0.33;;;10.20;99.90;;;;;;5073148;28;20210;-57
2022/05/30 01:36:12;;;;;;;0.00;0.00;;;10.10;99.90;;;;;;5073155;28;20229;-57
2022/05/30 01:38:39;;;;;;;0.00;0.00;;;10.10;99.90;;;;;;5072832;28;20568;-57
2022/05/30 01:41:07;;;;;;;0.67;0.23;;;10.10;99.90;;;;;;5071066;28;20210;-57
2022/05/30 01:43:35;;;;;;;0.30;0.30;;;10.00;99.90;;;;;;5072924;28;20528;-57
2022/05/30 01:46:08;;;;;;;0.40;0.40;;;10.00;99.90;;;;;;5072842;28;20199;-57
2022/05/30 01:48:35;;;;;;;0.10;0.10;;;9.90;99.90;;;;;;5071929;28;20234;-57
2022/05/30 01:51:02;;;;;;;0.10;0.10;;;9.90;99.90;;;;;;5071378;28;20215;-57
2022/05/30 01:53:29;;;;;;;0.00;0.00;;;9.90;99.90;;;;;;5071282;28;20306;-57
2022/05/30 01:55:56;;;;;;;0.20;0.20;;;9.90;99.90;;;;;;5074071;28;20202;-57
2022/05/30 01:58:23;;;;;;;0.00;0.00;;;10.00;99.90;;;;;;5072947;28;20699;-57
2022/05/30 02:00:51;;;;;;;0.00;0.00;;;9.90;99.90;;;;;;5073775;28;20531;-57
2022/05/30 02:03:19;;;;;;;0.10;0.10;;;10.00;99.90;;;;;;5071965;28;20199;-57
2022/05/30 02:05:46;;;;;;;0.00;0.00;;;10.00;99.90;;;;;;5070683;28;20196;-57
2022/05/30 02:08:16;;;;;;;0.00;0.00;;;9.90;99.90;;;;;;5071422;28;20254;-57
2022/05/30 02:10:43;;;;;;;0.00;0.00;;;9.90;99.90;;;;;;5071704;28;20297;-57
2022/05/30 02:13:10;;;;;;;0.10;0.10;;;9.80;99.90;;;;;;5072510;28;20235;-57
2022/05/30 02:18:19;;;;;;;0.10;0.10;;;9.70;99.90;;;;;;5072070;28;20183;-57
2022/05/30 02:20:46;;;;;;;0.10;0.10;;;9.60;99.90;;;;;;5072409;28;20326;-57
2022/05/30 02:23:13;;;;;;;0.00;0.00;;;9.60;99.90;;;;;;5072227;28;20198;-57
2022/05/30 02:25:41;;;;;;;0.10;0.10;;;9.60;99.90;;;;;;5072751;28;20214;-57
2022/05/30 02:28:08;;;;;;;0.00;0.00;;;9.50;99.90;;;;;;5073090;28;20542;-57
2022/05/30 02:30:35;;;;;;;0.00;0.00;;;9.60;99.90;;;;;;5073467;28;20208;-57
2022/05/30 02:38:29;;;;;;;0.00;0.00;;;9.50;99.90;;;;;;5071929;28;20270;-57
2022/05/30 02:40:56;;;;;;;0.00;0.00;;;9.50;99.90;;;;;;5073042;28;20252;-57
2022/05/30 02:43:22;;;;;;;0.20;0.20;;;9.50;99.90;;;;;;5072730;28;20199;-57
2022/05/30 02:45:49;;;;;;;0.20;0.20;;;9.50;99.90;;;;;;5072624;28;20202;-57
2022/05/30 02:48:16;;;;;;;0.20;0.20;;;9.50;99.90;;;;;;5071115;28;20682;-57
2022/05/30 02:50:45;;;;;;;0.50;0.50;;;9.60;99.90;;;;;;5072302;28;20259;-57
2022/05/30 02:53:12;;;;;;;0.00;0.00;;;9.60;99.90;;;;;;5071404;28;20260;-58
2022/05/30 02:55:39;;;;;;;0.10;0.10;;;9.60;99.90;;;;;;5072568;28;20191;-57
2022/05/30 02:58:06;;;;;;;0.10;0.10;;;9.70;99.90;;;;;;5072840;28;20265;-57
2022/05/30 03:00:33;;;;;;;0.10;0.10;;;9.70;99.90;;;;;;5072288;28;20199;-57
2022/05/30 03:03:00;;;;;;;0.00;0.00;;;9.70;99.90;;;;;;5072806;28;20252;-57
2022/05/30 03:05:27;;;;;;;0.10;0.10;;;9.70;99.90;;;;;;5071996;28;20200;-57
2022/05/30 03:07:56;;;;;;;0.00;0.00;;;9.70;99.90;;;;;;5072181;28;20234;-57
2022/05/30 03:10:22;;;;;;;2.37;0.23;;;9.70;99.90;;;;;;5071322;28;20195;-57
2022/05/30 03:12:49;;;;;;;0.43;0.43;;;9.70;99.90;;;;;;5071397;28;20704;-57
2022/05/30 03:15:16;;;;;;;0.50;0.50;;;9.70;99.90;;;;;;5072291;28;20238;-57
2022/05/30 03:17:44;;;;;;;0.00;0.00;;;9.70;99.90;;;;;;5073322;28;20198;-57
2022/05/30 03:20:11;;;;;;;0.30;0.30;;;9.70;99.90;;;;;;5074913;28;20606;-57
2022/05/30 03:22:39;;;;;;;0.07;0.07;;;9.70;99.90;;;;;;5072617;28;20195;-57
2022/05/30 03:25:08;;;;;;;0.10;0.10;;;9.60;99.90;;;;;;5071921;28;20670;-57
2022/05/30 03:27:35;;;;;;;0.30;0.30;;;9.60;99.90;;;;;;5072270;28;20272;-57
2022/05/30 03:30:03;;;;;;;0.27;0.27;;;9.50;99.90;;;;;;5072569;28;20224;-57
2022/05/30 03:32:30;;;;;;;0.00;0.00;;;9.50;99.90;;;;;;5072347;28;20215;-57
2022/05/30 03:34:57;;;;;;;2.37;0.50;;;9.50;99.90;;;;;;5072514;28;20199;-57
2022/05/30 03:37:24;;;;;;;0.63;0.47;;;9.40;99.90;;;;;;5072394;28;20203;-57
2022/05/30 03:39:50;;;;;;;0.40;0.20;;;9.40;99.90;;;;;;5072673;28;20195;-58
2022/05/30 03:42:19;;;;;;;0.53;0.53;;;9.40;99.90;;;;;;5072565;28;20208;-57
2022/05/30 03:44:46;;;;;;;0.00;0.00;;;9.30;99.90;;;;;;5072318;28;20233;-58
2022/05/30 03:47:13;;;;;;;0.40;0.20;;;9.30;99.90;;;;;;5072417;28;20205;-58
2022/05/30 03:49:39;;;;;;;0.00;0.00;;;9.30;99.90;;;;;;5072039;28;20730;-58
2022/05/30 03:52:07;;;;;;;0.07;0.07;;;9.20;99.90;;;;;;5072156;28;20634;-57
2022/05/30 03:54:34;;;;;;;0.10;0.10;;;9.20;99.90;;;;;;5072321;28;20198;-57
2022/05/30 03:57:01;;;;;;;0.07;0.07;;;9.20;99.90;;;;;;5072329;28;20202;-58
2022/05/30 03:59:29;;;;;;;0.00;0.00;;;9.10;99.90;;;;;;5072326;28;20213;-57
2022/05/30 04:01:56;;;;;;;0.00;0.00;;;9.20;99.90;;;;;;5072155;28;20249;-57
2022/05/30 04:04:23;;;;;;;0.50;0.50;;;9.20;99.90;;;;;;5073666;28;20855;-57
2022/05/30 04:06:50;;;;;;;0.30;0.30;;;9.20;99.90;;;;;;5076174;28;20249;-58
2022/05/30 04:09:17;;;;;;;0.10;0.10;;;9.30;99.90;;;;;;5076315;28;20199;-57
2022/05/30 04:11:44;;;;;;;0.20;0.20;;;9.30;99.90;;;;;;5075901;28;20211;-58
2022/05/30 04:14:11;;;;;;;1.47;1.37;;;9.30;99.90;;;;;;5074555;28;20230;-57
2022/05/30 04:16:39;;;;;;;0.10;0.10;;;9.40;99.90;;;;;;5075301;28;20203;-57
2022/05/30 04:19:06;;;;;;;0.07;0.07;;;9.40;99.90;;;;;;5075293;28;20196;-57
2022/05/30 04:21:33;;;;;;;0.27;0.27;;;9.40;99.90;;;;;;5075815;28;20199;-58
2022/05/30 04:24:00;;;;;;;0.40;0.40;;;9.50;99.90;;;;;;5074875;28;20687;-58
2022/05/30 04:26:27;;;;;;;0.00;0.00;;;9.50;99.90;;;;;;5075841;28;20192;-58
2022/05/30 04:28:54;;;;;;;3.67;1.53;;;9.60;99.90;;;;;;5075528;28;20691;-58
2022/05/30 04:31:20;;;;;;;0.30;0.30;;;9.60;99.90;;;;;;5075354;28;20240;-58
2022/05/30 04:33:49;;;;;;;0.00;0.00;;;9.60;99.90;;;;;;5075362;28;20655;-57
2022/05/30 04:36:16;;;;;;;0.10;0.10;;;9.70;99.90;;;;;;5075678;28;20219;-57
2022/05/30 04:38:43;;;;;;;0.40;0.40;;;9.60;99.90;;;;;;5075327;28;20195;-57
2022/05/30 04:41:11;;;;;;;1.90;0.60;;;9.70;99.90;;;;;;5075498;28;20221;-57
2022/05/30 04:43:38;;;;;;;0.13;0.13;;;9.80;99.90;;;;;;5075576;28;20620;-57
2022/05/30 04:46:07;;;;;;;1.60;1.13;;;9.90;99.90;;;;;;5075550;28;20208;-57
2022/05/30 04:48:34;;;;;;;0.30;0.20;;;9.80;99.90;;;;;;5075465;28;20210;-58
2022/05/30 04:51:03;;;;;;;0.30;0.20;;;9.80;99.90;;;;;;5075314;28;20200;-57
2022/05/30 04:53:30;;;;;;;0.20;0.20;;;9.90;99.90;;;;;;5075285;28;20212;-58
2022/05/30 04:55:56;;;;;;;0.37;0.37;;;10.00;99.90;;;;;;5074551;28;20261;-57
2022/05/30 04:58:24;;;;;;;0.20;0.20;;;10.10;99.90;;;;;;5075353;28;20214;-57
2022/05/30 05:00:56;;;;;;;0.10;0.10;;;10.20;99.90;;;;;;5074299;28;20245;-57
2022/05/30 05:03:23;;;;;;;0.20;0.20;;;10.30;99.90;;;;;;5074437;28;20644;-57
2022/05/30 05:05:50;;;;;;;0.20;0.20;;;10.30;99.90;;;;;;5074708;28;20213;-57
2022/05/30 05:08:33;;;;;;;0.10;0.10;;;10.40;99.90;;;;;;5074703;28;20203;-57
2022/05/30 05:11:14;;;;;;;1.40;1.03;;;10.50;99.90;;;;;;5075167;28;20192;-57
2022/05/30 05:13:41;;;;;;;0.63;0.40;;;10.50;99.90;;;;;;5077817;28;20205;-57
2022/05/30 05:16:08;;;;;;;1.70;0.83;;;10.60;99.90;;;;;;5074143;28;20195;-57
2022/05/30 05:18:35;;;;;;;0.27;0.27;;;10.70;99.90;;;;;;5074528;28;20531;-57
2022/05/30 05:21:02;;;;;;;0.10;0.10;;;10.70;99.90;;;;;;5074804;28;20196;-57
2022/05/30 05:23:30;;;;;;;0.70;0.70;;;10.80;99.90;;;;;;5074788;28;20212;-57
2022/05/30 05:25:57;;;;;;;9.63;2.87;;;10.90;99.90;;;;;;5074769;28;20193;-58
2022/05/30 05:28:24;;;;;;;0.00;0.00;;;11.00;99.90;;;;;;5074459;28;21047;-58
2022/05/30 05:30:51;;;;;;;0.23;0.20;;;11.10;99.90;;;;;;5074647;28;20255;-57
2022/05/30 05:33:19;;;;;;;0.20;0.20;;;11.20;99.90;;;;;;5074499;28;20229;-57
2022/05/30 05:35:47;;;;;;;0.30;0.30;;;11.30;99.90;;;;;;5074479;28;20209;-57
2022/05/30 05:38:15;;;;;;;0.00;0.00;;;11.40;99.90;;;;;;5074518;28;20197;-58
2022/05/30 05:40:44;;;;;;;0.47;0.30;;;11.50;99.90;;;;;;5074508;28;20198;-57
2022/05/30 05:43:12;;;;;;;0.30;0.30;;;11.60;99.90;;;;;;5074041;28;20191;-57
2022/05/30 05:45:41;;;;;;;0.13;0.13;;;11.60;99.90;;;;;;5074355;28;20207;-57
2022/05/30 05:48:10;;;;;;;0.30;0.30;;;11.60;99.90;;;;;;5074030;28;20268;-57
2022/05/30 05:50:38;;;;;;;0.70;0.70;;;11.70;99.90;;;;;;5073897;28;20686;-57
2022/05/30 05:53:05;;;;;;;0.90;0.90;;;11.60;99.90;;;;;;5074171;28;20222;-58
2022/05/30 05:55:32;;;;;;;0.67;0.67;;;11.60;99.90;;;;;;5074185;28;20205;-58
2022/05/30 05:58:00;;;;;;;0.40;0.40;;;11.70;99.90;;;;;;5074114;28;20187;-58
2022/05/30 06:00:29;;;;;;;0.43;0.43;;;11.90;99.90;;;;;;5074049;28;20219;-57
2022/05/30 06:02:56;;;;;;;0.40;0.40;;;11.90;99.90;;;;;;5073799;28;20697;-57
2022/05/30 06:05:24;;;;;;;0.63;0.63;;;12.00;99.90;;;;;;5073983;28;20199;-58
2022/05/30 06:07:51;;;;;;;0.67;0.20;;;12.00;99.90;;;;;;5073938;28;20209;-58
2022/05/30 06:10:26;;;;;;;0.30;0.30;;;12.10;99.90;;;;;;5074337;28;20190;-58
2022/05/30 06:12:53;;;;;;;0.33;0.33;;;12.20;99.90;;;;;;5073551;28;20267;-58
2022/05/30 06:15:22;;;;;;;2.40;0.83;;;12.30;99.90;;;;;;5073432;28;20229;-58
2022/05/30 06:17:49;;;;;;;4.27;2.10;;;12.40;99.90;;;;;;5073720;28;20199;-57
2022/05/30 06:20:18;;;;;;;0.53;0.53;;;12.40;99.90;;;;;;5073655;28;20198;-58
2022/05/30 06:22:45;;;;;;;0.10;0.10;;;12.60;99.90;;;;;;5073656;28;20862;-57
2022/05/30 06:25:13;;;;;;;1.60;0.80;;;12.70;99.90;;;;;;5073270;28;20195;-58
2022/05/30 06:27:40;;;;;;;0.40;0.33;;;12.80;99.90;;;;;;5073521;28;20210;-58
2022/05/30 06:30:08;;;;;;;0.97;0.40;;;12.90;99.90;;;;;;5073604;28;20256;-58
2022/05/30 06:32:37;;;;;;;1.43;0.57;;;13.00;99.90;;;;;;5073009;28;20704;-58
2022/05/30 06:35:04;;;;;;;0.33;0.33;;;13.20;99.90;;;;;;5073282;28;20199;-58
2022/05/30 06:37:31;;;;;;;1.90;1.80;;;13.30;99.90;;;;;;5072884;28;20675;-58
2022/05/30 06:39:58;;;;;;;0.43;0.43;;;13.10;99.90;;;;;;5073657;28;20195;-58
2022/05/30 06:42:26;;;;;;;0.30;0.30;;;12.90;99.90;;;;;;5073230;28;20197;-58
2022/05/30 06:44:53;;;;;;;0.30;0.30;;;13.00;99.90;;;;;;5073025;28;20195;-58
2022/05/30 06:47:20;;;;;;;2.13;0.97;;;13.10;99.90;;;;;;5073205;28;20198;-58
2022/05/30 06:49:48;;;;;;;0.13;0.13;;;13.00;99.90;;;;;;5073153;28;20203;-58
2022/05/30 06:52:15;;;;;;;3.60;2.03;;;13.10;99.90;;;;;;5074271;28;20202;-59
2022/05/30 06:54:42;;;;;;;0.00;0.00;;;13.30;99.90;;;;;;5073660;28;20195;-59
2022/05/30 06:59:54;;;;;;;0.10;0.10;;;13.60;99.90;;;;;;5072674;28;20682;-58
2022/05/30 07:02:21;;;;;;;0.57;0.40;;;13.80;99.90;;;;;;5072910;28;20210;-58
2022/05/30 07:04:49;;;;;;;0.20;0.20;;;13.90;99.90;;;;;;5072661;28;20854;-58
2022/05/30 07:07:16;;;;;;;0.10;0.10;;;14.10;99.90;;;;;;5073011;28;20202;-58
2022/05/30 07:09:43;;;;;;;0.10;0.10;;;14.20;99.90;;;;;;5072959;28;20281;-59
2022/05/30 07:12:11;;;;;;;0.73;0.73;;;14.20;99.90;;;;;;5072601;28;20195;-59
2022/05/30 07:14:38;;;;;;;0.33;0.30;;;14.30;99.90;;;;;;5072553;28;20321;-59
2022/05/30 07:17:07;;;;;;;0.13;0.13;;;14.60;99.90;;;;;;5072783;28;20203;-59
2022/05/30 07:19:34;;;;;;;0.50;0.50;;;14.70;99.90;;;;;;5072791;28;20208;-58
2022/05/30 07:22:03;;;;;;;0.10;0.10;;;14.90;99.90;;;;;;5072318;28;20687;-59
2022/05/30 07:24:30;;;;;;;16.87;1.07;;;15.30;99.90;;;;;;5072689;28;20199;-59
2022/05/30 07:26:57;;;;;;;0.10;0.10;;;16.50;99.90;;;;;;5072672;28;20206;-66
2022/05/30 07:29:26;;;;;;;0.30;0.20;;;16.90;99.90;;;;;;5072370;28;20674;-59
2022/05/30 07:31:58;;;;;;;0.37;0.33;;;16.50;99.90;;;;;;5072589;28;20200;-59
2022/05/30 07:34:26;;;;;;;0.20;0.20;;;16.50;90.10;;;;;;5072425;28;20234;-59
2022/05/30 07:36:53;;;;;;;0.10;0.10;;;16.90;64.90;;;;;;5072514;28;20271;-59
2022/05/30 07:39:22;;;;;;;0.50;0.50;;;16.90;41.60;;;;;;5072035;28;20202;-59
2022/05/30 07:41:49;;;;;;;0.53;0.30;;;16.50;22.60;;;;;;5072501;28;20195;-60
2022/05/30 07:44:15;;;;;;;0.20;0.20;;;16.80;20.80;;;;;;5072285;28;20195;-60
2022/05/30 07:46:44;;;;;;;0.37;0.30;;;17.50;1.00;;;;;;5071904;28;20712;-59
2022/05/30 07:49:11;;;;;;;0.10;0.10;;;18.00;1.00;;;;;;5072274;28;20244;-60
2022/05/30 07:51:39;;;;;;;0.40;0.40;;;18.50;1.00;;;;;;5072067;28;20203;-60
2022/05/30 07:54:06;;;;;;;0.50;0.43;;;19.30;1.00;;;;;;5072117;28;20221;-60
2022/05/30 07:56:35;;;;;;;0.45;0.45;;;19.90;1.00;;;;;;5072113;28;20535;-60
2022/05/30 07:59:02;;;;;;;0.10;0.10;;;19.80;1.00;;;;;;5072059;28;20209;-60
2022/05/30 08:01:29;;;;;;;0.15;0.15;;;20.10;1.00;;;;;;5072031;28;20547;-58
2022/05/30 08:03:56;;;;;;;0.20;0.20;;;19.40;1.00;;;;;;5072002;28;20202;-58
2022/05/30 08:06:25;;;;;;;0.68;0.68;;;18.50;1.00;;;;;;5071988;28;20209;-58
2022/05/30 08:08:53;;;;;;;0.15;0.15;;;18.10;1.00;;;;;;5071709;28;20199;-60
2022/05/30 08:11:20;;;;;;;0.10;0.10;;;17.80;1.00;;;;;;5071924;28;20210;-60
2022/05/30 08:13:49;;;;;;;0.17;0.17;;;17.10;1.00;;;;;;5071980;28;20319;-60
2022/05/30 08:16:18;;;;;;;0.10;0.10;;;16.20;1.00;;;;;;5072251;28;20583;-60
2022/05/30 08:18:45;;;;;;;1.23;0.40;;;15.70;1.00;;;;;;5072203;28;20202;-60
2022/05/30 08:21:12;;;;;;;2.10;0.30;;;16.20;1.00;;;;;;5072176;28;20203;-59
2022/05/30 08:23:39;;;;;;;0.00;0.00;;;16.40;1.00;;;;;;5072113;28;20202;-59
2022/05/30 08:26:06;;;;;;;0.37;0.37;;;16.40;1.00;;;;;;5071944;28;20587;-60
2022/05/30 08:28:34;;;;;;;0.00;0.00;;;15.90;1.00;;;;;;5072154;28;20209;-59
2022/05/30 08:31:03;;;;;;;0.00;0.00;;;15.70;1.00;;;;;;5072121;28;20819;-60
2022/05/30 08:33:30;;;;;;;7.00;3.30;;;15.60;1.00;;;;;;5071873;28;20215;-59
2022/05/30 08:36:02;;;;;;;0.20;0.20;;;15.30;1.00;;;;;;5072022;28;20212;-59
2022/05/30 08:38:33;;;;;;;0.00;0.00;;;15.20;1.00;;;;;;5071963;28;20241;-60
2022/05/30 08:43:49;;;;;;;0.20;0.20;;;14.80;1.00;;;;;;5071622;28;20631;-59
2022/05/30 08:46:35;;;;;;;0.13;0.10;;;14.40;1.00;;;;;;5071690;28;20202;-60
2022/05/30 08:49:17;;;;;;;2.30;0.50;;;14.30;1.00;;;;;;5072091;28;20206;-64
2022/05/30 08:52:02;;;;;;;0.57;0.30;;;14.20;1.00;;;;;;5074150;28;20604;-59
2022/05/30 08:54:43;;;;;;;0.20;0.20;;;14.00;1.00;;;;;;5075302;28;20671;-60
2022/05/30 08:57:16;;;;;;;0.10;0.10;;;14.00;1.00;;;;;;5075009;28;20586;-59
2022/05/30 08:59:59;;;;;;;0.17;0.17;;;14.20;1.00;;;;;;5075353;28;20202;-60
2022/05/30 09:02:31;;;;;;;0.00;0.00;;;14.60;1.00;;;;;;5074880;28;20190;-60
2022/05/30 09:05:05;;;;;;;0.20;0.20;;;14.90;1.00;;;;;;5075299;28;20215;-59
2022/05/30 09:07:41;;;;;;;0.10;0.10;;;15.10;1.00;;;;;;5075203;28;20191;-59
2022/05/30 09:10:13;;;;;;;0.77;0.10;;;15.10;1.00;;;;;;5075706;28;20194;-60
2022/05/30 09:12:46;;;;;;;2.67;0.67;;;15.30;1.00;;;;;;5075158;28;20183;-60
2022/05/30 09:15:20;;;;;;;0.20;0.20;;;15.50;1.00;;;;;;5074559;28;20774;-60
2022/05/30 09:17:54;;;;;;;2.30;0.60;;;16.30;1.00;;;;;;5075020;28;20188;-61
2022/05/30 09:20:24;;;;;;;2.20;2.10;;;17.30;1.00;;;;;;5074629;28;20185;-60
2022/05/30 09:22:52;;;;;;;0.10;0.10;;;17.30;1.00;;;;;;5074513;28;20691;-60
2022/05/30 09:28:07;;;;;;;0.60;0.60;;;16.50;1.00;;;;;;5075041;28;20270;-60
2022/05/30 09:30:42;;;;;;;0.10;0.10;;;16.70;1.00;;;;;;5074720;28;20559;-61
2022/05/30 09:33:21;;;;;;;0.20;0.20;;;16.80;1.00;;;;;;5074331;28;20245;-60
2022/05/30 09:35:48;;;;;;;0.20;0.20;;;16.90;1.00;;;;;;5074332;28;20187;-61
2022/05/30 09:38:20;;;;;;;0.20;0.20;;;16.90;1.00;;;;;;5074618;28;20566;-61
2022/05/30 09:40:51;;;;;;;0.30;0.30;;;17.10;1.00;;;;;;5074572;28;20514;-61
2022/05/30 09:43:25;;;;;;;0.80;0.60;;;17.00;1.00;;;;;;5074166;28;20202;-62
2022/05/30 09:45:52;;;;;;;0.43;0.43;;;16.90;1.00;;;;;;5074493;28;20182;-60
2022/05/30 09:56:45;;;;;;;0.45;0.40;;;16.00;1.00;;;;;;5109657;27;20671;-60
2022/05/30 10:00:58;;;;;;;0.38;0.38;;;15.40;1.00;;;;;;5089151;27;21276;-60
2022/05/30 10:03:29;;;;;;;0.80;0.80;;;15.70;1.00;;;;;;5090223;28;20188;-60
2022/05/30 10:06:15;;;;;;;1.03;1.03;;;17.40;1.00;;;;;;5090159;28;20231;-60
2022/05/30 10:08:43;;;;;;;0.40;0.40;;;19.00;1.00;;;;;;5089799;28;20694;-62
2022/05/30 10:11:11;;;;;;;0.67;0.67;;;19.40;1.00;;;;;;5089883;28;20209;-61
2022/05/30 10:13:40;;;;;;;0.30;0.30;;;19.50;1.00;;;;;;5089998;28;20198;-61
2022/05/30 10:16:11;;;;;;;0.40;0.40;;;20.10;1.00;;;;;;5090002;28;20641;-60
2022/05/30 10:18:45;;;;;;;0.60;0.60;;;20.50;1.00;;;;;;5089709;28;20188;-61
2022/05/30 10:21:33;;;;;;;1.25;1.25;;;20.60;1.00;;;;;;5089599;28;20198;-61
2022/05/30 10:30:01;;;;;;;0.33;0.30;;;18.30;1.00;;;;;;5089333;28;20683;-60
2022/05/30 10:32:35;;;;;;;0.30;0.30;;;19.20;1.00;;;;;;5089334;28;20186;-61
2022/05/30 10:35:24;;;;;;;0.30;0.30;;;19.20;1.00;;;;;;5089093;28;20220;-60
2022/05/30 10:38:10;;;;;;;0.75;0.30;;;19.30;1.00;;;;;;5083610;28;20217;-61
2022/05/30 10:40:48;;;;;;;0.85;0.85;;;19.60;1.00;;;;;;5088880;28;20212;-61
2022/05/30 10:43:21;;;;;;;0.30;0.30;;;19.40;1.00;;;;;;5089267;28;20537;-60
2022/05/30 10:45:53;;;;;;;0.43;0.30;;;19.60;1.00;;;;;;5089161;28;20190;-60
2022/05/30 10:48:26;;;;;;;0.30;0.30;;;19.00;1.00;;;;;;5089127;28;20189;-60
2022/05/30 10:50:59;;;;;;;0.35;0.35;;;18.70;1.00;;;;;;5088745;28;20191;-60
2022/05/30 10:53:32;;;;;;;1.45;0.57;;;18.50;1.00;;;;;;5088683;28;20628;-61
2022/05/30 10:56:05;;;;;;;0.20;0.20;;;17.60;1.00;;;;;;5088731;28;20188;-60
2022/05/30 10:58:41;;;;;;;0.13;0.13;;;17.30;1.00;;;;;;5088918;28;20183;-60
2022/05/30 11:01:10;;;;;;;0.50;0.30;;;17.30;1.00;;;;;;5089043;28;20178;-61
2022/05/30 11:03:43;;;;;;;0.10;0.10;;;17.80;1.00;;;;;;5088691;28;20343;-60
2022/05/30 11:06:18;;;;;;;0.30;0.30;;;18.10;1.00;;;;;;5088914;28;20183;-61
2022/05/30 11:08:51;;;;;;;0.33;0.33;;;18.20;1.00;;;;;;5088483;28;20187;-60
2022/05/30 11:11:23;;;;;;;1.63;0.70;;;18.40;1.00;;;;;;5080093;28;20191;-60
2022/05/30 11:13:56;;;;;;;0.20;0.20;;;18.70;1.00;;;;;;5075168;28;20179;-60
2022/05/30 11:16:39;;;;;;;0.30;0.30;;;18.80;1.00;;;;;;5075112;28;20202;-60
2022/05/30 11:19:14;;;;;;;1.00;0.30;;;18.10;1.00;;;;;;5075134;28;20214;-60
2022/05/30 11:21:48;;;;;;;0.40;0.40;;;17.70;1.00;;;;;;5074830;28;20188;-60
2022/05/30 11:24:16;;;;;;;0.20;0.20;;;17.40;1.00;;;;;;5074924;28;20700;-60
2022/05/30 11:27:01;;;;;;;0.30;0.30;;;17.80;1.00;;;;;;5075095;28;20215;-61
2022/05/30 11:29:49;;;;;;;0.30;0.30;;;18.70;1.00;;;;;;5075026;28;20180;-60
2022/05/30 11:32:41;;;;;;;0.10;0.10;;;19.20;1.00;;;;;;5074815;28;20190;-60
2022/05/30 11:35:25;;;;;;;0.30;0.30;;;19.80;1.00;;;;;;5073046;28;20207;-60
2022/05/30 11:38:07;;;;;;;0.32;0.32;;;19.80;1.00;;;;;;5074638;28;20198;-61
2022/05/30 11:40:40;;;;;;;0.10;0.10;;;20.20;1.00;;;;;;5074537;28;20203;-61
2022/05/30 11:43:30;;;;;;;0.75;0.75;;;20.40;1.00;;;;;;5074697;28;20198;-61
2022/05/30 11:46:02;;;;;;;0.60;0.60;;;20.60;1.00;;;;;;5067993;28;20256;-60
2022/05/30 11:48:39;;;;;;;0.40;0.40;;;20.60;1.00;;;;;;5074260;28;20217;-61
2022/05/30 11:51:19;;;;;;;2.13;1.10;;;21.50;1.00;;;;;;5074371;28;20221;-60
2022/05/30 11:54:21;;;;;;;1.05;0.70;;;22.60;1.00;;;;;;5074055;28;20282;-59
2022/05/30 11:56:58;;;;;;;1.27;0.75;;;21.90;1.00;;;;;;5074350;28;20190;-59
2022/05/30 11:59:57;;;;;;;0.50;0.50;;;19.90;1.00;;;;;;5073662;28;20695;-59
2022/05/30 12:02:31;;;;;;;0.60;0.60;;;19.00;1.00;;;;;;5073949;28;20656;-62
2022/05/30 12:05:28;;;;;;;0.50;0.50;;;19.60;1.00;;;;;;5074325;28;20592;-62
2022/05/30 12:08:34;;;;;;;0.63;0.63;;;20.10;1.00;;;;;;5074230;28;20183;-62
2022/05/30 12:11:24;;;;;;;0.50;0.50;;;20.70;1.00;;;;;;5074024;28;20225;-62
2022/05/30 12:14:03;;;;;;;0.40;0.40;;;20.90;1.00;;;;;;5074139;28;20186;-62
2022/05/30 12:16:42;;;;;;;0.50;0.50;;;20.50;1.00;;;;;;5073673;28;20621;-63
2022/05/30 12:24:58;;;;;;;0.38;0.38;;;20.40;1.00;;;;;;5073762;28;20183;-62
2022/05/30 12:27:36;;;;;;;0.65;0.50;;;19.50;1.00;;;;;;5073726;28;20210;-63
2022/05/30 12:30:06;;;;;;;0.60;0.60;;;19.20;1.00;;;;;;5073881;28;20218;-63
2022/05/30 12:32:42;;;;;;;0.40;0.40;;;18.80;1.00;;;;;;5073671;28;20986;-62
2022/05/30 12:35:30;;;;;;;0.60;0.60;;;18.60;1.00;;;;;;5073866;28;20206;-62
2022/05/30 12:38:18;;;;;;;0.87;0.73;;;18.60;1.00;;;;;;5073700;28;20211;-62
2022/05/30 12:41:11;;;;;;;0.50;0.50;;;18.30;1.00;;;;;;5073511;28;20207;-62
2022/05/30 12:43:43;;;;;;;0.30;0.30;;;18.20;1.00;;;;;;5073135;28;20203;-62
2022/05/30 12:46:17;;;;;;;8.57;0.77;;;17.80;1.00;;;;;;5073598;28;20559;-61
2022/05/30 12:48:59;;;;;;;0.30;0.30;;;17.50;1.00;;;;;;5073609;28;20191;-62
2022/05/30 12:51:30;;;;;;;1.37;1.27;;;17.50;1.00;;;;;;5073440;28;20186;-62
2022/05/30 12:54:36;;;;;;;0.30;0.30;;;17.60;1.00;;;;;;5073478;28;20183;-62
2022/05/30 12:57:10;;;;;;;0.10;0.10;;;17.70;1.00;;;;;;5073507;28;20174;-62
2022/05/30 13:00:06;;;;;;;0.70;0.70;;;18.10;1.00;;;;;;5072581;28;20237;-62
2022/05/30 13:03:09;;;;;;;2.13;1.20;;;18.20;1.00;;;;;;5073278;28;20289;-61
2022/05/30 13:05:47;;;;;;;0.30;0.30;;;18.00;1.00;;;;;;5073233;28;20201;-62
2022/05/30 13:08:46;;;;;;;0.40;0.40;;;17.90;1.00;;;;;;5073182;28;20191;-62
2022/05/30 13:11:20;;;;;;;0.20;0.20;;;17.90;1.00;;;;;;5072660;28;20629;-62
2022/05/30 13:13:54;;;;;;;0.50;0.50;;;18.00;1.00;;;;;;5073041;28;20189;-62
2022/05/30 13:16:30;;;;;;;0.20;0.20;;;18.40;1.00;;;;;;5072507;28;20640;-61
2022/05/30 13:18:57;;;;;;;0.20;0.20;;;18.30;1.00;;;;;;5072768;28;20186;-62
2022/05/30 13:21:29;;;;;;;0.00;0.00;;;18.40;1.00;;;;;;5072465;28;20230;-61
2022/05/30 13:23:55;;;;;;;0.53;0.53;;;18.30;1.00;;;;;;5072424;28;20175;-61
2022/05/30 13:26:22;;;;;;;0.30;0.30;;;18.50;1.00;;;;;;5072654;28;20195;-62
2022/05/30 13:28:52;;;;;;;0.10;0.10;;;18.50;1.00;;;;;;5072549;28;20218;-61
2022/05/30 13:31:21;;;;;;;0.10;0.10;;;18.60;1.00;;;;;;5072355;28;20191;-61
2022/05/30 13:33:50;;;;;;;0.73;0.73;;;18.50;1.00;;;;;;5072334;28;20199;-60
2022/05/30 13:36:20;;;;;;;2.90;0.50;;;18.30;1.00;;;;;;5072574;28;20206;-61
2022/05/30 13:38:49;;;;;;;0.40;0.40;;;18.30;1.00;;;;;;5072487;28;20202;-61
2022/05/30 13:41:26;;;;;;;0.27;0.27;;;18.30;1.00;;;;;;5072370;28;20219;-61
2022/05/30 13:43:56;;;;;;;0.23;0.23;;;18.60;1.00;;;;;;5072536;28;20184;-60
2022/05/30 13:46:24;;;;;;;0.10;0.10;;;18.60;1.00;;;;;;5072506;28;20190;-61
2022/05/30 13:48:50;;;;;;;0.17;0.17;;;18.40;1.00;;;;;;5072440;28;20290;-61
2022/05/30 13:51:21;;;;;;;0.37;0.37;;;18.60;1.00;;;;;;5072317;28;20202;-61
2022/05/30 13:53:51;;;;;;;0.20;0.20;;;18.60;1.00;;;;;;5072495;28;20241;-61